Tropical Cyclones
[Index]
Main Index Home Page Stock Weather Photos Extreme Storms Discussion Storm News and Storm Chasing Reports Tropical Cyclones / Hurricanes / Typhoons Weather Data and Links Wild Fires / Bushfires Weather Observation Techniques Weather Picture Catalogue Tornado Pictures and Reports Stock Video Footage and DVDs for sale
Season 1955-1956 Tropical Cyclone 195628 Track Map
Season 1955-1956 Summaries: [BoM-AU] [JTWC-AU] [JTWC-SIO] [JTWC-SPAC] [JTWC-SH]
<<- Previous TC | JTWC 1955-1956 Season | Next TC ->>

click for intensity scale information  Lat/long Grid: Show Hide

 Date Labels: Show Hide

Joint Typhoon Warning Centre Cyclone Data

Name: 195628
Number: 270 / 5628

24 Mar 1956 12:00 UTC to 31 Mar 1956 18:00 UTC

    date/time    lat    long     hPa   cat  kts
1956-03-24 12   11.6   137.9                  15          
1956-03-24 18   11.9   137.0            1     40          
1956-03-25 00   12.0   136.4            1     50          
1956-03-25 06   11.9   136.0            1     45          
1956-03-25 12   11.8   135.5            1     45          
1956-03-25 18   11.8   135.1            1     40          
1956-03-26 00   11.9   134.7            1     40          
1956-03-26 06   12.1   134.2                  35          
1956-03-26 12   12.5   133.6                  35          
1956-03-26 18   13.1   133.3                  30          
1956-03-27 00   13.6   133.3                  30          
1956-03-27 06   13.9   133.7                  35          
1956-03-27 12   14.2   134.1            1     40          
1956-03-27 18   14.4   134.4            1     50          
1956-03-28 00   14.8   134.9            1     50          
1956-03-28 06   16.0   135.9            1     45          
1956-03-28 12   17.2   136.9                  35          
1956-03-28 18   18.1   137.8                  25          
1956-03-29 00   19.2   138.6                  20          
1956-03-29 06   20.9   139.5                  20          
1956-03-29 12   22.7   140.1                  25          
1956-03-29 18   24.5   140.2                  25          
1956-03-30 00   26.3   140.2                  25          
1956-03-30 06   28.6   140.2                  25          
1956-03-30 12   30.8   140.2                  25          
1956-03-30 18   32.8   140.3                  25          
1956-03-31 00   34.9   141.2                  25          
1956-03-31 06   37.4   143.2                  25          
1956-03-31 12   39.8   145.6                  20          
1956-03-31 18   41.9   147.9                  20          
Winds are 1-min average.

Tropical cyclone tracks developed by Michael Bath using data from the Joint Typhoon Warning Centre Best Tracks and Google Maps.


[Australian Severe Weather index] [Copyright Notice] [Email Contacts] [Search This Site] [Privacy Policy]
Document: tropical_cyclone_195628.htm Updated: 18 September 2016